Airport ID:KEDC
Update Time (UTC):22 JUL 19 18:56
Wind Speed (Knots):6
Wind Direction (Magnetic):160
Temperature (°C):34
Dew Point (°C):21
Humidity (%):48
Altimeter (inHg):30.01
Density Altitude (Feet):2800
Visibility (Miles):10
Clouds (Hundreds of feet):CLR
Present Weather:NO PRECIPITATION
METAR:METAR KEDC 221855Z AUTO 17006KT 10SM CLR 34/22 A3001 RMK AO2

The data displayed is for advisory purposes only and is not to be used for flight planning or operations.

This page is not automatically refreshed. Reload the page to see current data.